sensor_id;sensor_type;location;lat;lon;timestamp;pressure;altitude;pressure_sealevel;temperature;humidity
44988;BME280;35735;52.226;21.254;2023-11-21T00:03:07;99665.44;;;-0.73;100.00
44988;BME280;35735;52.226;21.254;2023-11-21T00:08:08;99665.22;;;-0.79;100.00
44988;BME280;35735;52.226;21.254;2023-11-21T00:13:08;99662.34;;;-0.85;100.00
44988;BME280;35735;52.226;21.254;2023-11-21T00:18:09;99660.41;;;-0.91;100.00
44988;BME280;35735;52.226;21.254;2023-11-21T00:23:10;99660.25;;;-0.96;100.00
44988;BME280;35735;52.226;21.254;2023-11-21T00:28:10;99668.97;;;-1.00;100.00
44988;BME280;35735;52.226;21.254;2023-11-21T00:33:11;99681.16;;;-1.05;100.00
44988;BME280;35735;52.226;21.254;2023-11-21T00:38:11;99684.41;;;-1.12;100.00
44988;BME280;35735;52.226;21.254;2023-11-21T00:43:12;99694.69;;;-1.21;100.00
44988;BME280;35735;52.226;21.254;2023-11-21T00:48:12;99698.19;;;-1.22;100.00
44988;BME280;35735;52.226;21.254;2023-11-21T00:53:13;99692.34;;;-1.12;100.00
44988;BME280;35735;52.226;21.254;2023-11-21T00:58:13;99700.41;;;-1.09;100.00
44988;BME280;35735;52.226;21.254;2023-11-21T01:03:14;99705.28;;;-1.21;100.00
44988;BME280;35735;52.226;21.254;2023-11-21T01:08:15;99706.94;;;-1.25;100.00
44988;BME280;35735;52.226;21.254;2023-11-21T01:13:16;99702.75;;;-1.18;100.00
44988;BME280;35735;52.226;21.254;2023-11-21T01:18:16;99709.00;;;-1.16;100.00
44988;BME280;35735;52.226;21.254;2023-11-21T01:23:17;99709.00;;;-1.16;100.00
44988;BME280;35735;52.226;21.254;2023-11-21T01:28:18;99711.53;;;-1.19;100.00
44988;BME280;35735;52.226;21.254;2023-11-21T01:33:18;99714.06;;;-1.22;100.00
44988;BME280;35735;52.226;21.254;2023-11-21T01:38:19;99717.34;;;-1.29;100.00
44988;BME280;35735;52.226;21.254;2023-11-21T01:43:19;99718.28;;;-1.27;100.00
44988;BME280;35735;52.226;21.254;2023-11-21T01:48:20;99713.41;;;-1.17;100.00
44988;BME280;35735;52.226;21.254;2023-11-21T01:53:21;99721.47;;;-1.12;100.00
44988;BME280;35735;52.226;21.254;2023-11-21T01:58:22;99727.66;;;-1.13;100.00
44988;BME280;35735;52.226;21.254;2023-11-21T02:03:22;99721.19;;;-1.21;100.00
44988;BME280;35735;52.226;21.254;2023-11-21T02:08:23;99732.53;;;-1.24;100.00
44988;BME280;35735;52.226;21.254;2023-11-21T02:13:23;99737.91;;;-1.22;100.00
44988;BME280;35735;52.226;21.254;2023-11-21T02:18:24;99728.28;;;-1.20;100.00
44988;BME280;35735;52.226;21.254;2023-11-21T02:23:25;99737.06;;;-1.21;100.00
44988;BME280;35735;52.226;21.254;2023-11-21T02:28:25;99733.66;;;-1.17;100.00
44988;BME280;35735;52.226;21.254;2023-11-21T02:33:26;99741.78;;;-1.13;100.00
44988;BME280;35735;52.226;21.254;2023-11-21T02:38:26;99742.59;;;-1.15;100.00
44988;BME280;35735;52.226;21.254;2023-11-21T02:43:27;99739.72;;;-1.21;100.00
44988;BME280;35735;52.226;21.254;2023-11-21T02:48:27;99743.31;;;-1.19;100.00
44988;BME280;35735;52.226;21.254;2023-11-21T02:53:28;99747.03;;;-1.14;100.00
44988;BME280;35735;52.226;21.254;2023-11-21T02:58:29;99745.00;;;-1.21;100.00
44988;BME280;35735;52.226;21.254;2023-11-21T03:03:29;99746.75;;;-1.22;100.00
44988;BME280;35735;52.226;21.254;2023-11-21T03:08:30;99752.16;;;-1.19;100.00
44988;BME280;35735;52.226;21.254;2023-11-21T03:13:30;99748.34;;;-1.27;100.00
44988;BME280;35735;52.226;21.254;2023-11-21T03:18:31;99762.00;;;-1.39;100.00
44988;BME280;35735;52.226;21.254;2023-11-21T03:23:31;99764.44;;;-1.45;100.00
44988;BME280;35735;52.226;21.254;2023-11-21T03:28:32;99767.69;;;-1.52;100.00
44988;BME280;35735;52.226;21.254;2023-11-21T03:33:33;99774.66;;;-1.54;100.00
44988;BME280;35735;52.226;21.254;2023-11-21T03:38:33;99780.75;;;-1.57;100.00
44988;BME280;35735;52.226;21.254;2023-11-21T03:43:34;99773.59;;;-1.59;100.00
44988;BME280;35735;52.226;21.254;2023-11-21T03:48:34;99781.66;;;-1.56;100.00
44988;BME280;35735;52.226;21.254;2023-11-21T03:53:35;99786.81;;;-1.59;100.00
44988;BME280;35735;52.226;21.254;2023-11-21T03:58:35;99788.66;;;-1.58;100.00
44988;BME280;35735;52.226;21.254;2023-11-21T04:03:36;99793.19;;;-1.54;100.00
44988;BME280;35735;52.226;21.254;2023-11-21T04:08:36;99798.44;;;-1.56;100.00
44988;BME280;35735;52.226;21.254;2023-11-21T04:13:38;99801.88;;;-1.58;100.00
44988;BME280;35735;52.226;21.254;2023-11-21T04:18:39;99806.09;;;-1.63;100.00
44988;BME280;35735;52.226;21.254;2023-11-21T04:23:40;99799.16;;;-1.60;100.00
44988;BME280;35735;52.226;21.254;2023-11-21T04:28:40;99811.50;;;-1.60;100.00
44988;BME280;35735;52.226;21.254;2023-11-21T04:33:41;99813.97;;;-1.65;100.00
44988;BME280;35735;52.226;21.254;2023-11-21T04:38:41;99817.31;;;-1.69;100.00
44988;BME280;35735;52.226;21.254;2023-11-21T04:43:42;99824.38;;;-1.70;100.00
44988;BME280;35735;52.226;21.254;2023-11-21T04:48:43;99818.94;;;-1.73;100.00
44988;BME280;35735;52.226;21.254;2023-11-21T04:53:43;99813.53;;;-1.76;100.00
44988;BME280;35735;52.226;21.254;2023-11-21T04:58:45;99833.63;;;-1.81;100.00
44988;BME280;35735;52.226;21.254;2023-11-21T05:03:45;99827.44;;;-1.81;100.00
44988;BME280;35735;52.226;21.254;2023-11-21T05:08:46;99829.12;;;-1.83;100.00
44988;BME280;35735;52.226;21.254;2023-11-21T05:13:46;99837.00;;;-1.85;100.00
44988;BME280;35735;52.226;21.254;2023-11-21T05:18:48;99839.03;;;-1.78;100.00
44988;BME280;35735;52.226;21.254;2023-11-21T05:23:49;99846.13;;;-1.77;100.00
44988;BME280;35735;52.226;21.254;2023-11-21T05:28:49;99854.25;;;-1.72;100.00
44988;BME280;35735;52.226;21.254;2023-11-21T05:33:50;99860.31;;;-1.75;100.00
44988;BME280;35735;52.226;21.254;2023-11-21T05:38:51;99861.09;;;-1.77;100.00
44988;BME280;35735;52.226;21.254;2023-11-21T05:43:51;99869.09;;;-1.76;100.00
44988;BME280;35735;52.226;21.254;2023-11-21T05:48:52;99878.03;;;-1.74;100.00
44988;BME280;35735;52.226;21.254;2023-11-21T05:53:52;99882.31;;;-1.76;100.00
44988;BME280;35735;52.226;21.254;2023-11-21T05:58:53;99884.22;;;-1.73;100.00
44988;BME280;35735;52.226;21.254;2023-11-21T06:03:54;99888.59;;;-1.74;100.00
44988;BME280;35735;52.226;21.254;2023-11-21T06:08:54;99895.69;;;-1.73;100.00
44988;BME280;35735;52.226;21.254;2023-11-21T06:13:55;99903.69;;;-1.71;100.00
44988;BME280;35735;52.226;21.254;2023-11-21T06:18:56;99905.38;;;-1.73;100.00
44988;BME280;35735;52.226;21.254;2023-11-21T06:23:56;99908.09;;;-1.72;100.00
44988;BME280;35735;52.226;21.254;2023-11-21T06:28:57;99909.87;;;-1.71;100.00
44988;BME280;35735;52.226;21.254;2023-11-21T06:33:58;99921.44;;;-1.69;100.00
44988;BME280;35735;52.226;21.254;2023-11-21T06:38:58;99925.75;;;-1.71;100.00
44988;BME280;35735;52.226;21.254;2023-11-21T06:43:59;99927.56;;;-1.70;100.00
44988;BME280;35735;52.226;21.254;2023-11-21T06:49:00;99929.00;;;-1.78;100.00
44988;BME280;35735;52.226;21.254;2023-11-21T06:54:00;99941.38;;;-1.77;100.00
44988;BME280;35735;52.226;21.254;2023-11-21T06:59:01;99957.34;;;-1.75;100.00
44988;BME280;35735;52.226;21.254;2023-11-21T07:04:01;99952.81;;;-1.78;100.00
44988;BME280;35735;52.226;21.254;2023-11-21T07:09:02;99960.03;;;-1.74;100.00
44988;BME280;35735;52.226;21.254;2023-11-21T07:14:03;99963.37;;;-1.78;100.00
44988;BME280;35735;52.226;21.254;2023-11-21T07:19:04;99968.47;;;-1.82;100.00
44988;BME280;35735;52.226;21.254;2023-11-21T07:24:05;99972.16;;;-1.79;100.00
44988;BME280;35735;52.226;21.254;2023-11-21T07:29:07;99977.72;;;-1.73;100.00
44988;BME280;35735;52.226;21.254;2023-11-21T07:34:08;99979.41;;;-1.75;100.00
44988;BME280;35735;52.226;21.254;2023-11-21T07:39:09;99983.06;;;-1.71;100.00
44988;BME280;35735;52.226;21.254;2023-11-21T07:44:09;99984.88;;;-1.70;100.00
44988;BME280;35735;52.226;21.254;2023-11-21T07:49:10;99987.84;;;-1.62;100.00
44988;BME280;35735;52.226;21.254;2023-11-21T07:54:11;99987.00;;;-1.61;100.00
44988;BME280;35735;52.226;21.254;2023-11-21T07:59:12;99983.28;;;-1.66;100.00
44988;BME280;35735;52.226;21.254;2023-11-21T08:04:12;99986.06;;;-1.63;100.00
44988;BME280;35735;52.226;21.254;2023-11-21T08:09:14;99978.09;;;-1.63;100.00
44988;BME280;35735;52.226;21.254;2023-11-21T08:14:15;99979.75;;;-1.65;100.00
44988;BME280;35735;52.226;21.254;2023-11-21T08:19:17;99997.31;;;-1.68;100.00
44988;BME280;35735;52.226;21.254;2023-11-21T08:24:17;100004.56;;;-1.63;100.00
44988;BME280;35735;52.226;21.254;2023-11-21T08:29:18;100015.28;;;-1.60;100.00
44988;BME280;35735;52.226;21.254;2023-11-21T08:34:18;100020.63;;;-1.59;100.00
44988;BME280;35735;52.226;21.254;2023-11-21T08:39:19;100021.75;;;-1.54;100.00
44988;BME280;35735;52.226;21.254;2023-11-21T08:44:20;100022.31;;;-1.40;100.00
44988;BME280;35735;52.226;21.254;2023-11-21T08:49:20;100021.66;;;-1.34;100.00
44988;BME280;35735;52.226;21.254;2023-11-21T08:54:21;100034.25;;;-1.28;100.00
44988;BME280;35735;52.226;21.254;2023-11-21T08:59:22;100038.97;;;-1.21;100.00
44988;BME280;35735;52.226;21.254;2023-11-21T09:04:22;100035.22;;;-1.26;100.00
44988;BME280;35735;52.226;21.254;2023-11-21T09:09:23;100044.13;;;-1.24;100.00
44988;BME280;35735;52.226;21.254;2023-11-21T09:14:23;100040.59;;;-1.25;100.00
44988;BME280;35735;52.226;21.254;2023-11-21T09:19:24;100043.22;;;-1.25;100.00
44988;BME280;35735;52.226;21.254;2023-11-21T09:24:25;100053.87;;;-1.23;100.00
44988;BME280;35735;52.226;21.254;2023-11-21T09:29:26;100052.62;;;-1.10;100.00
44988;BME280;35735;52.226;21.254;2023-11-21T09:34:27;100052.94;;;-1.03;100.00
44988;BME280;35735;52.226;21.254;2023-11-21T09:45:27;100059.94;;;-1.05;100.00
44988;BME280;35735;52.226;21.254;2023-11-21T09:50:28;100050.44;;;-1.00;100.00
44988;BME280;35735;52.226;21.254;2023-11-21T13:11:45;100159.22;;;-1.16;100.00
44988;BME280;35735;52.226;21.254;2023-11-21T13:16:46;100170.59;;;-1.19;100.00
44988;BME280;35735;52.226;21.254;2023-11-21T13:21:46;100174.41;;;-1.12;100.00
44988;BME280;35735;52.226;21.254;2023-11-21T13:26:47;100182.63;;;-1.06;100.00
44988;BME280;35735;52.226;21.254;2023-11-21T13:31:48;100189.87;;;-1.02;100.00
44988;BME280;35735;52.226;21.254;2023-11-21T13:36:48;100184.50;;;-1.03;100.00
44988;BME280;35735;52.226;21.254;2023-11-21T13:41:49;100191.53;;;-1.04;100.00
44988;BME280;35735;52.226;21.254;2023-11-21T13:46:49;100204.72;;;-1.05;100.00
44988;BME280;35735;52.226;21.254;2023-11-21T13:51:50;100209.25;;;-1.03;100.00
44988;BME280;35735;52.226;21.254;2023-11-21T13:56:51;100216.53;;;-0.97;100.00
44988;BME280;35735;52.226;21.254;2023-11-21T14:01:51;100224.00;;;-0.88;100.00
44988;BME280;35735;52.226;21.254;2023-11-21T14:06:52;100236.03;;;-0.97;100.00
44988;BME280;35735;52.226;21.254;2023-11-21T14:11:55;100247.66;;;-0.93;100.00
44988;BME280;35735;52.226;21.254;2023-11-21T14:16:56;100256.56;;;-0.91;100.00
44988;BME280;35735;52.226;21.254;2023-11-21T14:21:56;100268.06;;;-0.90;100.00
44988;BME280;35735;52.226;21.254;2023-11-21T14:26:57;100292.75;;;-0.91;100.00
44988;BME280;35735;52.226;21.254;2023-11-21T14:31:58;100289.16;;;-0.94;100.00
44988;BME280;35735;52.226;21.254;2023-11-21T14:36:58;100309.34;;;-0.96;100.00
44988;BME280;35735;52.226;21.254;2023-11-21T14:41:59;100312.72;;;-1.00;100.00
44988;BME280;35735;52.226;21.254;2023-11-21T14:47:00;100314.19;;;-1.06;100.00
44988;BME280;35735;52.226;21.254;2023-11-21T14:52:00;100334.06;;;-1.16;100.00
44988;BME280;35735;52.226;21.254;2023-11-21T14:57:01;100336.56;;;-1.19;100.00
44988;BME280;35735;52.226;21.254;2023-11-21T15:02:03;100336.25;;;-1.25;100.00
44988;BME280;35735;52.226;21.254;2023-11-21T15:07:05;100337.12;;;-1.26;100.00
44988;BME280;35735;52.226;21.254;2023-11-21T15:12:06;100342.97;;;-1.34;100.00
44988;BME280;35735;52.226;21.254;2023-11-21T15:17:07;100344.84;;;-1.31;100.00
44988;BME280;35735;52.226;21.254;2023-11-21T15:22:08;100347.56;;;-1.29;100.00
44988;BME280;35735;52.226;21.254;2023-11-21T15:27:10;100352.72;;;-1.33;100.00
44988;BME280;35735;52.226;21.254;2023-11-21T15:32:11;100356.22;;;-1.34;100.00
44988;BME280;35735;52.226;21.254;2023-11-21T15:37:13;100359.37;;;-1.41;100.00
44988;BME280;35735;52.226;21.254;2023-11-21T15:42:13;100358.97;;;-1.50;100.00
44988;BME280;35735;52.226;21.254;2023-11-21T15:47:14;100364.28;;;-1.50;100.00
44988;BME280;35735;52.226;21.254;2023-11-21T15:52:15;100375.53;;;-1.54;100.00
44988;BME280;35735;52.226;21.254;2023-11-21T15:57:15;100379.84;;;-1.56;100.00
44988;BME280;35735;52.226;21.254;2023-11-21T16:02:16;100385.00;;;-1.59;100.00
44988;BME280;35735;52.226;21.254;2023-11-21T16:07:17;100390.06;;;-1.64;100.00
44988;BME280;35735;52.226;21.254;2023-11-21T16:12:18;100404.81;;;-1.69;100.00
44988;BME280;35735;52.226;21.254;2023-11-21T16:17:18;100410.41;;;-1.63;100.00
44988;BME280;35735;52.226;21.254;2023-11-21T16:22:19;100426.38;;;-1.61;100.00
44988;BME280;35735;52.226;21.254;2023-11-21T16:27:20;100426.75;;;-1.72;100.00
44988;BME280;35735;52.226;21.254;2023-11-21T16:32:21;100435.66;;;-1.70;100.00
44988;BME280;35735;52.226;21.254;2023-11-21T16:37:21;100439.44;;;-1.64;100.00
44988;BME280;35735;52.226;21.254;2023-11-21T16:42:22;100452.03;;;-1.60;100.00
44988;BME280;35735;52.226;21.254;2023-11-21T16:47:22;100456.31;;;-1.62;100.00
44988;BME280;35735;52.226;21.254;2023-11-21T16:52:23;100462.12;;;-1.70;100.00
44988;BME280;35735;52.226;21.254;2023-11-21T16:57:24;100467.28;;;-1.73;100.00
44988;BME280;35735;52.226;21.254;2023-11-21T17:02:24;100475.59;;;-1.83;100.00
44988;BME280;35735;52.226;21.254;2023-11-21T17:07:25;100479.91;;;-1.85;100.00
44988;BME280;35735;52.226;21.254;2023-11-21T17:12:25;100478.91;;;-1.87;100.00
44988;BME280;35735;52.226;21.254;2023-11-21T17:17:26;100478.75;;;-1.90;100.00
44988;BME280;35735;52.226;21.254;2023-11-21T17:22:27;100484.22;;;-1.87;100.00
44988;BME280;35735;52.226;21.254;2023-11-21T17:27:27;100485.84;;;-1.89;100.00
44988;BME280;35735;52.226;21.254;2023-11-21T17:32:28;100495.38;;;-1.93;100.00
44988;BME280;35735;52.226;21.254;2023-11-21T17:37:28;100511.31;;;-1.91;100.00
44988;BME280;35735;52.226;21.254;2023-11-21T17:42:29;100520.75;;;-1.96;100.00
44988;BME280;35735;52.226;21.254;2023-11-21T17:47:30;100522.44;;;-1.98;100.00
44988;BME280;35735;52.226;21.254;2023-11-21T17:52:30;100521.16;;;-1.89;100.00
44988;BME280;35735;52.226;21.254;2023-11-21T17:57:32;100526.75;;;-1.82;100.00
44988;BME280;35735;52.226;21.254;2023-11-21T18:02:32;100515.97;;;-1.87;100.00
44988;BME280;35735;52.226;21.254;2023-11-21T18:07:33;100537.94;;;-1.88;100.00
44988;BME280;35735;52.226;21.254;2023-11-21T18:12:34;100538.94;;;-1.86;100.00
44988;BME280;35735;52.226;21.254;2023-11-21T18:17:34;100543.31;;;-1.87;100.00
44988;BME280;35735;52.226;21.254;2023-11-21T18:22:35;100560.84;;;-1.89;100.00
44988;BME280;35735;52.226;21.254;2023-11-21T18:27:36;100556.31;;;-1.91;100.00
44988;BME280;35735;52.226;21.254;2023-11-21T18:32:37;100564.16;;;-1.93;100.00
44988;BME280;35735;52.226;21.254;2023-11-21T18:37:38;100576.66;;;-1.90;100.00
44988;BME280;35735;52.226;21.254;2023-11-21T18:42:38;100578.28;;;-1.92;100.00
44988;BME280;35735;52.226;21.254;2023-11-21T18:47:39;100595.16;;;-1.90;100.00
44988;BME280;35735;52.226;21.254;2023-11-21T18:52:39;100597.66;;;-1.93;100.00
44988;BME280;35735;52.226;21.254;2023-11-21T18:57:40;100602.84;;;-1.95;100.00
44988;BME280;35735;52.226;21.254;2023-11-21T19:02:40;100597.91;;;-1.89;100.00
44988;BME280;35735;52.226;21.254;2023-11-21T19:07:41;100607.56;;;-1.89;100.00
44988;BME280;35735;52.226;21.254;2023-11-21T19:12:42;100598.81;;;-1.88;100.00
44988;BME280;35735;52.226;21.254;2023-11-21T19:17:42;100602.59;;;-1.83;100.00
44988;BME280;35735;52.226;21.254;2023-11-21T19:22:43;100604.56;;;-1.79;100.00
44988;BME280;35735;52.226;21.254;2023-11-21T19:27:43;100619.53;;;-1.79;100.00
44988;BME280;35735;52.226;21.254;2023-11-21T19:32:44;100620.56;;;-1.94;100.00
44988;BME280;35735;52.226;21.254;2023-11-21T19:37:44;100626.59;;;-1.96;100.00
44988;BME280;35735;52.226;21.254;2023-11-21T19:42:45;100633.72;;;-1.95;100.00
44988;BME280;35735;52.226;21.254;2023-11-21T19:47:46;100639.12;;;-1.92;100.00
44988;BME280;35735;52.226;21.254;2023-11-21T19:52:46;100653.22;;;-1.93;100.00
44988;BME280;35735;52.226;21.254;2023-11-21T19:57:47;100651.22;;;-1.97;100.00
44988;BME280;35735;52.226;21.254;2023-11-21T20:02:47;100663.44;;;-1.99;100.00
44988;BME280;35735;52.226;21.254;2023-11-21T20:07:48;100674.87;;;-2.00;100.00
44988;BME280;35735;52.226;21.254;2023-11-21T20:12:48;100675.53;;;-2.05;100.00
44988;BME280;35735;52.226;21.254;2023-11-21T20:17:49;100683.38;;;-2.06;100.00
44988;BME280;35735;52.226;21.254;2023-11-21T20:22:50;100698.00;;;-2.13;100.00
44988;BME280;35735;52.226;21.254;2023-11-21T20:27:50;100708.16;;;-2.04;100.00
44988;BME280;35735;52.226;21.254;2023-11-21T20:32:51;100709.09;;;-2.03;100.00
44988;BME280;35735;52.226;21.254;2023-11-21T20:37:51;100714.84;;;-2.11;100.00
44988;BME280;35735;52.226;21.254;2023-11-21T20:42:52;100718.66;;;-2.06;100.00
44988;BME280;35735;52.226;21.254;2023-11-21T20:47:53;100726.59;;;-2.06;100.00
44988;BME280;35735;52.226;21.254;2023-11-21T20:52:53;100734.06;;;-1.98;100.00
44988;BME280;35735;52.226;21.254;2023-11-21T20:57:54;100736.88;;;-1.95;100.00
44988;BME280;35735;52.226;21.254;2023-11-21T21:02:54;100743.81;;;-1.97;100.00
44988;BME280;35735;52.226;21.254;2023-11-21T21:07:55;100756.63;;;-2.05;100.00
44988;BME280;35735;52.226;21.254;2023-11-21T21:12:56;100757.53;;;-2.05;100.00
44988;BME280;35735;52.226;21.254;2023-11-21T21:17:56;100775.06;;;-2.07;100.00
44988;BME280;35735;52.226;21.254;2023-11-21T21:22:57;100788.28;;;-2.07;100.00
44988;BME280;35735;52.226;21.254;2023-11-21T21:27:59;100789.00;;;-2.09;100.00
44988;BME280;35735;52.226;21.254;2023-11-21T21:32:59;100797.22;;;-2.05;100.00
44988;BME280;35735;52.226;21.254;2023-11-21T21:38:00;100798.38;;;-1.99;100.00
44988;BME280;35735;52.226;21.254;2023-11-21T21:43:01;100799.53;;;-1.94;100.00
44988;BME280;35735;52.226;21.254;2023-11-21T21:48:02;100807.97;;;-2.01;100.00
44988;BME280;35735;52.226;21.254;2023-11-21T21:53:02;100813.97;;;-2.04;100.00
44988;BME280;35735;52.226;21.254;2023-11-21T21:58:03;100821.47;;;-1.97;100.00
44988;BME280;35735;52.226;21.254;2023-11-21T22:03:03;100828.47;;;-1.97;100.00
44988;BME280;35735;52.226;21.254;2023-11-21T22:08:04;100827.06;;;-1.91;100.00
44988;BME280;35735;52.226;21.254;2023-11-21T22:13:04;100849.19;;;-1.90;100.00
44988;BME280;35735;52.226;21.254;2023-11-21T22:18:05;100845.38;;;-1.95;100.00
44988;BME280;35735;52.226;21.254;2023-11-21T22:23:06;100853.44;;;-1.92;100.00
44988;BME280;35735;52.226;21.254;2023-11-21T22:28:06;100861.75;;;-1.86;100.00
44988;BME280;35735;52.226;21.254;2023-11-21T22:33:07;100861.75;;;-1.86;100.00
44988;BME280;35735;52.226;21.254;2023-11-21T22:38:07;100864.22;;;-1.89;100.00
44988;BME280;35735;52.226;21.254;2023-11-21T22:43:08;100870.97;;;-1.94;100.00
44988;BME280;35735;52.226;21.254;2023-11-21T22:48:10;100878.72;;;-1.97;100.00
44988;BME280;35735;52.226;21.254;2023-11-21T22:53:10;100882.41;;;-1.95;100.00
44988;BME280;35735;52.226;21.254;2023-11-21T22:58:11;100887.69;;;-1.95;100.00
44988;BME280;35735;52.226;21.254;2023-11-21T23:03:11;100894.47;;;-2.00;100.00
44988;BME280;35735;52.226;21.254;2023-11-21T23:08:12;100894.47;;;-2.15;100.00
44988;BME280;35735;52.226;21.254;2023-11-21T23:13:13;100901.47;;;-2.16;100.00
44988;BME280;35735;52.226;21.254;2023-11-21T23:18:13;100897.47;;;-2.24;100.00
44988;BME280;35735;52.226;21.254;2023-11-21T23:23:14;100904.78;;;-2.20;100.00
44988;BME280;35735;52.226;21.254;2023-11-21T23:28:14;100904.31;;;-2.28;100.00
44988;BME280;35735;52.226;21.254;2023-11-21T23:33:15;100917.53;;;-2.28;100.00
44988;BME280;35735;52.226;21.254;2023-11-21T23:38:16;100925.75;;;-2.23;100.00
44988;BME280;35735;52.226;21.254;2023-11-21T23:43:16;100937.41;;;-2.19;100.00
44988;BME280;35735;52.226;21.254;2023-11-21T23:48:17;100932.22;;;-2.18;100.00
44988;BME280;35735;52.226;21.254;2023-11-21T23:53:17;100934.78;;;-2.19;100.00
44988;BME280;35735;52.226;21.254;2023-11-21T23:58:18;100939.16;;;-2.20;100.00
